sensor_id;sensor_type;location;lat;lon;timestamp;P1;durP1;ratioP1;P2;durP2;ratioP2
7941;SDS011;4016;50.758;7.150;2023-10-08T00:02:11;5.50;;;4.70;;
7941;SDS011;4016;50.758;7.150;2023-10-08T00:07:14;4.67;;;4.20;;
7941;SDS011;4016;50.758;7.150;2023-10-08T00:12:14;7.30;;;5.00;;
7941;SDS011;4016;50.758;7.150;2023-10-08T00:17:16;7.03;;;4.90;;
7941;SDS011;4016;50.758;7.150;2023-10-08T00:22:18;7.03;;;4.87;;
7941;SDS011;4016;50.758;7.150;2023-10-08T00:27:19;4.87;;;4.20;;
7941;SDS011;4016;50.758;7.150;2023-10-08T00:32:21;5.40;;;4.33;;
7941;SDS011;4016;50.758;7.150;2023-10-08T00:37:22;5.43;;;4.40;;
7941;SDS011;4016;50.758;7.150;2023-10-08T00:42:26;6.47;;;4.53;;
7941;SDS011;4016;50.758;7.150;2023-10-08T00:47:28;5.27;;;4.70;;
7941;SDS011;4016;50.758;7.150;2023-10-08T00:52:28;6.90;;;4.63;;
7941;SDS011;4016;50.758;7.150;2023-10-08T00:57:30;6.33;;;4.10;;
7941;SDS011;4016;50.758;7.150;2023-10-08T01:02:34;6.17;;;4.90;;
7941;SDS011;4016;50.758;7.150;2023-10-08T01:07:49;6.13;;;4.57;;
7941;SDS011;4016;50.758;7.150;2023-10-08T01:12:51;6.33;;;4.30;;
7941;SDS011;4016;50.758;7.150;2023-10-08T01:17:55;5.53;;;4.77;;
7941;SDS011;4016;50.758;7.150;2023-10-08T01:23:01;8.37;;;4.40;;
7941;SDS011;4016;50.758;7.150;2023-10-08T01:28:09;6.23;;;4.20;;
7941;SDS011;4016;50.758;7.150;2023-10-08T01:33:26;5.63;;;4.23;;
7941;SDS011;4016;50.758;7.150;2023-10-08T01:38:32;5.43;;;4.47;;
7941;SDS011;4016;50.758;7.150;2023-10-08T01:43:35;6.63;;;4.80;;
7941;SDS011;4016;50.758;7.150;2023-10-08T01:48:35;8.37;;;4.73;;
7941;SDS011;4016;50.758;7.150;2023-10-08T01:53:37;5.87;;;4.60;;
7941;SDS011;4016;50.758;7.150;2023-10-08T01:58:38;6.30;;;4.77;;
7941;SDS011;4016;50.758;7.150;2023-10-08T02:03:39;5.00;;;4.40;;
7941;SDS011;4016;50.758;7.150;2023-10-08T02:08:41;5.77;;;4.50;;
7941;SDS011;4016;50.758;7.150;2023-10-08T02:13:42;7.87;;;4.80;;
7941;SDS011;4016;50.758;7.150;2023-10-08T02:18:42;5.80;;;4.60;;
7941;SDS011;4016;50.758;7.150;2023-10-08T02:23:44;5.03;;;4.37;;
7941;SDS011;4016;50.758;7.150;2023-10-08T02:28:44;5.17;;;4.20;;
7941;SDS011;4016;50.758;7.150;2023-10-08T02:33:45;5.80;;;4.30;;
7941;SDS011;4016;50.758;7.150;2023-10-08T02:38:45;5.33;;;4.30;;
7941;SDS011;4016;50.758;7.150;2023-10-08T02:43:45;5.20;;;3.97;;
7941;SDS011;4016;50.758;7.150;2023-10-08T02:48:48;6.20;;;4.53;;
7941;SDS011;4016;50.758;7.150;2023-10-08T02:53:48;5.20;;;4.37;;
7941;SDS011;4016;50.758;7.150;2023-10-08T02:58:50;6.20;;;4.50;;
7941;SDS011;4016;50.758;7.150;2023-10-08T03:03:51;5.33;;;4.13;;
7941;SDS011;4016;50.758;7.150;2023-10-08T03:09:01;7.80;;;4.70;;
7941;SDS011;4016;50.758;7.150;2023-10-08T03:14:05;7.60;;;5.10;;
7941;SDS011;4016;50.758;7.150;2023-10-08T03:19:14;5.70;;;4.73;;
7941;SDS011;4016;50.758;7.150;2023-10-08T03:24:18;6.23;;;4.40;;
7941;SDS011;4016;50.758;7.150;2023-10-08T03:29:37;6.73;;;4.40;;
7941;SDS011;4016;50.758;7.150;2023-10-08T03:34:45;6.23;;;4.47;;
7941;SDS011;4016;50.758;7.150;2023-10-08T03:39:47;4.67;;;4.00;;
7941;SDS011;4016;50.758;7.150;2023-10-08T03:44:52;5.80;;;4.43;;
7941;SDS011;4016;50.758;7.150;2023-10-08T03:49:54;5.27;;;4.53;;
7941;SDS011;4016;50.758;7.150;2023-10-08T03:54:54;8.37;;;4.50;;
7941;SDS011;4016;50.758;7.150;2023-10-08T04:00:20;4.80;;;4.30;;
7941;SDS011;4016;50.758;7.150;2023-10-08T04:05:28;6.03;;;4.10;;
7941;SDS011;4016;50.758;7.150;2023-10-08T04:10:40;6.90;;;4.80;;
7941;SDS011;4016;50.758;7.150;2023-10-08T04:15:41;6.17;;;4.60;;
7941;SDS011;4016;50.758;7.150;2023-10-08T04:20:41;6.07;;;4.50;;
7941;SDS011;4016;50.758;7.150;2023-10-08T04:26:00;5.17;;;4.67;;
7941;SDS011;4016;50.758;7.150;2023-10-08T04:31:01;5.40;;;4.20;;
7941;SDS011;4016;50.758;7.150;2023-10-08T04:36:14;6.90;;;4.47;;
7941;SDS011;4016;50.758;7.150;2023-10-08T04:41:18;6.23;;;4.23;;
7941;SDS011;4016;50.758;7.150;2023-10-08T04:46:19;5.13;;;4.20;;
7941;SDS011;4016;50.758;7.150;2023-10-08T04:51:20;5.67;;;4.43;;
7941;SDS011;4016;50.758;7.150;2023-10-08T04:56:22;6.87;;;4.37;;
7941;SDS011;4016;50.758;7.150;2023-10-08T05:01:23;6.93;;;4.50;;
7941;SDS011;4016;50.758;7.150;2023-10-08T05:06:40;7.80;;;4.70;;
7941;SDS011;4016;50.758;7.150;2023-10-08T05:11:48;5.87;;;4.30;;
7941;SDS011;4016;50.758;7.150;2023-10-08T05:16:52;5.33;;;4.03;;
7941;SDS011;4016;50.758;7.150;2023-10-08T05:22:00;5.03;;;4.17;;
7941;SDS011;4016;50.758;7.150;2023-10-08T05:27:19;5.77;;;4.77;;
7941;SDS011;4016;50.758;7.150;2023-10-08T05:32:43;5.20;;;4.37;;
7941;SDS011;4016;50.758;7.150;2023-10-08T05:38:02;5.60;;;4.23;;
7941;SDS011;4016;50.758;7.150;2023-10-08T05:43:13;4.40;;;4.00;;
7941;SDS011;4016;50.758;7.150;2023-10-08T05:48:33;5.53;;;4.47;;
7941;SDS011;4016;50.758;7.150;2023-10-08T05:53:45;6.23;;;4.17;;
7941;SDS011;4016;50.758;7.150;2023-10-08T05:58:48;5.87;;;4.50;;
7941;SDS011;4016;50.758;7.150;2023-10-08T06:04:00;4.97;;;4.30;;
7941;SDS011;4016;50.758;7.150;2023-10-08T06:09:06;6.97;;;4.67;;
7941;SDS011;4016;50.758;7.150;2023-10-08T06:14:21;7.07;;;5.00;;
7941;SDS011;4016;50.758;7.150;2023-10-08T06:19:40;9.93;;;4.70;;
7941;SDS011;4016;50.758;7.150;2023-10-08T06:24:41;6.40;;;4.73;;
7941;SDS011;4016;50.758;7.150;2023-10-08T06:29:41;5.33;;;4.50;;
7941;SDS011;4016;50.758;7.150;2023-10-08T06:34:44;10.03;;;4.60;;
7941;SDS011;4016;50.758;7.150;2023-10-08T06:39:45;7.00;;;4.77;;
7941;SDS011;4016;50.758;7.150;2023-10-08T06:44:48;6.10;;;4.53;;
7941;SDS011;4016;50.758;7.150;2023-10-08T06:49:49;6.80;;;4.80;;
7941;SDS011;4016;50.758;7.150;2023-10-08T06:54:51;5.73;;;4.93;;
7941;SDS011;4016;50.758;7.150;2023-10-08T06:59:53;7.93;;;5.23;;
7941;SDS011;4016;50.758;7.150;2023-10-08T07:04:53;6.00;;;4.93;;
7941;SDS011;4016;50.758;7.150;2023-10-08T07:09:53;6.43;;;5.07;;
7941;SDS011;4016;50.758;7.150;2023-10-08T07:14:57;6.13;;;4.97;;
7941;SDS011;4016;50.758;7.150;2023-10-08T07:19:58;5.30;;;4.70;;
7941;SDS011;4016;50.758;7.150;2023-10-08T07:24:59;8.37;;;5.80;;
7941;SDS011;4016;50.758;7.150;2023-10-08T07:29:59;9.93;;;5.40;;
7941;SDS011;4016;50.758;7.150;2023-10-08T07:35:02;6.63;;;4.43;;
7941;SDS011;4016;50.758;7.150;2023-10-08T07:40:27;8.37;;;4.83;;
7941;SDS011;4016;50.758;7.150;2023-10-08T07:45:29;9.33;;;5.17;;
7941;SDS011;4016;50.758;7.150;2023-10-08T07:50:35;6.33;;;5.07;;
7941;SDS011;4016;50.758;7.150;2023-10-08T07:55:41;7.17;;;5.00;;
7941;SDS011;4016;50.758;7.150;2023-10-08T08:00:42;4.90;;;4.37;;
7941;SDS011;4016;50.758;7.150;2023-10-08T08:05:51;6.93;;;4.80;;
7941;SDS011;4016;50.758;7.150;2023-10-08T08:10:53;7.53;;;4.57;;
7941;SDS011;4016;50.758;7.150;2023-10-08T08:16:04;9.57;;;4.70;;
7941;SDS011;4016;50.758;7.150;2023-10-08T08:21:16;6.70;;;4.73;;
7941;SDS011;4016;50.758;7.150;2023-10-08T08:26:23;6.45;;;4.60;;
7941;SDS011;4016;50.758;7.150;2023-10-08T08:31:30;6.28;;;4.72;;
7941;SDS011;4016;50.758;7.150;2023-10-08T08:36:31;7.53;;;4.90;;
7941;SDS011;4016;50.758;7.150;2023-10-08T08:41:37;6.20;;;4.70;;
7941;SDS011;4016;50.758;7.150;2023-10-08T08:46:38;8.05;;;5.03;;
7941;SDS011;4016;50.758;7.150;2023-10-08T08:51:40;6.85;;;4.72;;
7941;SDS011;4016;50.758;7.150;2023-10-08T08:56:41;5.15;;;4.10;;
7941;SDS011;4016;50.758;7.150;2023-10-08T09:01:44;5.75;;;4.95;;
7941;SDS011;4016;50.758;7.150;2023-10-08T09:06:44;6.20;;;4.60;;
7941;SDS011;4016;50.758;7.150;2023-10-08T09:11:45;7.93;;;4.90;;
7941;SDS011;4016;50.758;7.150;2023-10-08T09:16:45;8.13;;;5.03;;
7941;SDS011;4016;50.758;7.150;2023-10-08T09:21:59;7.63;;;5.03;;
7941;SDS011;4016;50.758;7.150;2023-10-08T09:27:00;6.93;;;4.53;;
7941;SDS011;4016;50.758;7.150;2023-10-08T09:32:02;6.57;;;5.13;;
7941;SDS011;4016;50.758;7.150;2023-10-08T09:37:05;8.80;;;5.75;;
7941;SDS011;4016;50.758;7.150;2023-10-08T09:42:07;6.85;;;5.05;;
7941;SDS011;4016;50.758;7.150;2023-10-08T09:47:12;7.72;;;5.32;;
7941;SDS011;4016;50.758;7.150;2023-10-08T09:52:16;6.80;;;5.20;;
7941;SDS011;4016;50.758;7.150;2023-10-08T09:57:19;9.55;;;5.55;;
7941;SDS011;4016;50.758;7.150;2023-10-08T10:02:21;7.85;;;5.50;;
7941;SDS011;4016;50.758;7.150;2023-10-08T10:07:25;8.02;;;5.47;;
7941;SDS011;4016;50.758;7.150;2023-10-08T10:12:26;10.07;;;5.45;;
7941;SDS011;4016;50.758;7.150;2023-10-08T10:17:28;9.57;;;5.40;;
7941;SDS011;4016;50.758;7.150;2023-10-08T10:22:30;13.20;;;6.55;;
7941;SDS011;4016;50.758;7.150;2023-10-08T10:27:32;11.63;;;5.60;;
7941;SDS011;4016;50.758;7.150;2023-10-08T10:32:34;10.30;;;5.85;;
7941;SDS011;4016;50.758;7.150;2023-10-08T10:37:35;12.43;;;6.00;;
7941;SDS011;4016;50.758;7.150;2023-10-08T10:42:47;10.18;;;6.40;;
7941;SDS011;4016;50.758;7.150;2023-10-08T10:47:53;14.85;;;7.35;;
7941;SDS011;4016;50.758;7.150;2023-10-08T10:53:00;12.45;;;7.00;;
7941;SDS011;4016;50.758;7.150;2023-10-08T10:58:11;11.30;;;7.32;;
7941;SDS011;4016;50.758;7.150;2023-10-08T11:03:11;16.98;;;7.70;;
7941;SDS011;4016;50.758;7.150;2023-10-08T11:08:23;9.02;;;6.45;;
7941;SDS011;4016;50.758;7.150;2023-10-08T11:13:24;12.13;;;7.93;;
7941;SDS011;4016;50.758;7.150;2023-10-08T11:18:42;11.55;;;6.88;;
7941;SDS011;4016;50.758;7.150;2023-10-08T11:23:47;11.98;;;7.38;;
7941;SDS011;4016;50.758;7.150;2023-10-08T11:29:15;9.45;;;7.22;;
7941;SDS011;4016;50.758;7.150;2023-10-08T11:34:30;13.63;;;7.70;;
7941;SDS011;4016;50.758;7.150;2023-10-08T11:39:39;13.30;;;6.90;;
7941;SDS011;4016;50.758;7.150;2023-10-08T11:44:45;10.88;;;7.22;;
7941;SDS011;4016;50.758;7.150;2023-10-08T11:49:46;12.27;;;7.65;;
7941;SDS011;4016;50.758;7.150;2023-10-08T11:54:47;12.75;;;7.53;;
7941;SDS011;4016;50.758;7.150;2023-10-08T11:59:48;12.32;;;7.97;;
7941;SDS011;4016;50.758;7.150;2023-10-08T12:04:52;11.52;;;7.90;;
7941;SDS011;4016;50.758;7.150;2023-10-08T12:09:57;11.80;;;8.57;;
7941;SDS011;4016;50.758;7.150;2023-10-08T12:14:57;16.05;;;8.52;;
7941;SDS011;4016;50.758;7.150;2023-10-08T12:19:59;14.75;;;8.00;;
7941;SDS011;4016;50.758;7.150;2023-10-08T12:25:12;13.05;;;8.68;;
7941;SDS011;4016;50.758;7.150;2023-10-08T12:30:13;12.38;;;7.68;;
7941;SDS011;4016;50.758;7.150;2023-10-08T12:35:14;13.85;;;8.52;;
7941;SDS011;4016;50.758;7.150;2023-10-08T12:40:14;13.25;;;8.75;;
7941;SDS011;4016;50.758;7.150;2023-10-08T12:45:23;17.00;;;9.90;;
7941;SDS011;4016;50.758;7.150;2023-10-08T12:50:27;14.25;;;7.80;;
7941;SDS011;4016;50.758;7.150;2023-10-08T12:55:39;16.40;;;8.38;;
7941;SDS011;4016;50.758;7.150;2023-10-08T13:00:39;13.93;;;8.25;;
7941;SDS011;4016;50.758;7.150;2023-10-08T13:05:49;13.55;;;9.25;;
7941;SDS011;4016;50.758;7.150;2023-10-08T13:10:54;12.93;;;8.68;;
7941;SDS011;4016;50.758;7.150;2023-10-08T13:16:00;14.68;;;8.52;;
7941;SDS011;4016;50.758;7.150;2023-10-08T13:21:07;14.93;;;8.82;;
7941;SDS011;4016;50.758;7.150;2023-10-08T13:26:09;12.75;;;8.10;;
7941;SDS011;4016;50.758;7.150;2023-10-08T13:31:10;12.38;;;8.43;;
7941;SDS011;4016;50.758;7.150;2023-10-08T13:36:11;17.05;;;8.43;;
7941;SDS011;4016;50.758;7.150;2023-10-08T13:41:13;14.57;;;8.68;;
7941;SDS011;4016;50.758;7.150;2023-10-08T13:46:18;11.43;;;8.38;;
7941;SDS011;4016;50.758;7.150;2023-10-08T13:51:22;12.23;;;8.30;;
7941;SDS011;4016;50.758;7.150;2023-10-08T13:56:26;15.88;;;8.27;;
7941;SDS011;4016;50.758;7.150;2023-10-08T14:01:31;11.85;;;8.10;;
7941;SDS011;4016;50.758;7.150;2023-10-08T14:06:34;12.80;;;8.20;;
7941;SDS011;4016;50.758;7.150;2023-10-08T14:11:35;12.48;;;8.45;;
7941;SDS011;4016;50.758;7.150;2023-10-08T14:16:42;10.88;;;8.00;;
7941;SDS011;4016;50.758;7.150;2023-10-08T14:21:42;12.20;;;7.85;;
7941;SDS011;4016;50.758;7.150;2023-10-08T14:27:04;10.48;;;7.78;;
7941;SDS011;4016;50.758;7.150;2023-10-08T14:32:10;11.95;;;8.77;;
7941;SDS011;4016;50.758;7.150;2023-10-08T14:37:10;12.77;;;8.30;;
7941;SDS011;4016;50.758;7.150;2023-10-08T14:42:29;12.43;;;8.38;;
7941;SDS011;4016;50.758;7.150;2023-10-08T14:47:50;12.57;;;8.32;;
7941;SDS011;4016;50.758;7.150;2023-10-08T14:52:50;12.35;;;8.65;;
7941;SDS011;4016;50.758;7.150;2023-10-08T14:57:50;11.20;;;7.68;;
7941;SDS011;4016;50.758;7.150;2023-10-08T15:02:54;12.23;;;8.50;;
7941;SDS011;4016;50.758;7.150;2023-10-08T15:07:55;11.70;;;8.13;;
7941;SDS011;4016;50.758;7.150;2023-10-08T15:12:55;13.48;;;7.97;;
7941;SDS011;4016;50.758;7.150;2023-10-08T15:17:57;13.85;;;8.63;;
7941;SDS011;4016;50.758;7.150;2023-10-08T15:22:57;8.75;;;7.07;;
7941;SDS011;4016;50.758;7.150;2023-10-08T15:27:58;12.27;;;8.40;;
7941;SDS011;4016;50.758;7.150;2023-10-08T15:32:58;13.10;;;8.15;;
7941;SDS011;4016;50.758;7.150;2023-10-08T15:37:59;11.65;;;8.02;;
7941;SDS011;4016;50.758;7.150;2023-10-08T15:42:59;12.98;;;8.32;;
7941;SDS011;4016;50.758;7.150;2023-10-08T15:48:00;13.15;;;8.70;;
7941;SDS011;4016;50.758;7.150;2023-10-08T15:53:00;11.30;;;8.55;;
7941;SDS011;4016;50.758;7.150;2023-10-08T15:58:01;10.18;;;8.43;;
7941;SDS011;4016;50.758;7.150;2023-10-08T16:03:01;13.40;;;9.20;;
7941;SDS011;4016;50.758;7.150;2023-10-08T16:08:01;11.95;;;9.30;;
7941;SDS011;4016;50.758;7.150;2023-10-08T16:13:02;12.80;;;8.82;;
7941;SDS011;4016;50.758;7.150;2023-10-08T16:18:03;14.77;;;8.88;;
7941;SDS011;4016;50.758;7.150;2023-10-08T16:23:04;12.00;;;8.13;;
7941;SDS011;4016;50.758;7.150;2023-10-08T16:28:05;12.52;;;7.95;;
7941;SDS011;4016;50.758;7.150;2023-10-08T16:33:05;10.43;;;7.75;;
7941;SDS011;4016;50.758;7.150;2023-10-08T16:38:06;12.82;;;8.15;;
7941;SDS011;4016;50.758;7.150;2023-10-08T16:43:06;16.45;;;8.23;;
7941;SDS011;4016;50.758;7.150;2023-10-08T16:48:11;10.23;;;7.97;;
7941;SDS011;4016;50.758;7.150;2023-10-08T16:53:15;13.23;;;7.40;;
7941;SDS011;4016;50.758;7.150;2023-10-08T16:58:16;10.95;;;8.25;;
7941;SDS011;4016;50.758;7.150;2023-10-08T17:03:16;10.60;;;7.93;;
7941;SDS011;4016;50.758;7.150;2023-10-08T17:08:21;11.38;;;8.65;;
7941;SDS011;4016;50.758;7.150;2023-10-08T17:13:21;8.85;;;7.65;;
7941;SDS011;4016;50.758;7.150;2023-10-08T17:18:22;9.15;;;7.78;;
7941;SDS011;4016;50.758;7.150;2023-10-08T17:23:24;11.40;;;7.60;;
7941;SDS011;4016;50.758;7.150;2023-10-08T17:28:25;12.52;;;8.15;;
7941;SDS011;4016;50.758;7.150;2023-10-08T17:33:26;9.88;;;7.72;;
7941;SDS011;4016;50.758;7.150;2023-10-08T17:38:28;14.55;;;11.13;;
7941;SDS011;4016;50.758;7.150;2023-10-08T17:43:31;12.50;;;10.88;;
7941;SDS011;4016;50.758;7.150;2023-10-08T17:48:31;10.57;;;8.88;;
7941;SDS011;4016;50.758;7.150;2023-10-08T17:53:36;10.13;;;8.30;;
7941;SDS011;4016;50.758;7.150;2023-10-08T17:58:36;10.27;;;7.72;;
7941;SDS011;4016;50.758;7.150;2023-10-08T18:03:37;11.57;;;8.25;;
7941;SDS011;4016;50.758;7.150;2023-10-08T18:08:39;11.23;;;8.45;;
7941;SDS011;4016;50.758;7.150;2023-10-08T18:13:39;10.70;;;8.75;;
7941;SDS011;4016;50.758;7.150;2023-10-08T18:18:42;11.98;;;8.40;;
7941;SDS011;4016;50.758;7.150;2023-10-08T18:23:44;11.18;;;7.90;;
7941;SDS011;4016;50.758;7.150;2023-10-08T18:28:46;11.37;;;7.33;;
7941;SDS011;4016;50.758;7.150;2023-10-08T18:33:48;9.93;;;7.75;;
7941;SDS011;4016;50.758;7.150;2023-10-08T18:38:50;12.23;;;8.30;;
7941;SDS011;4016;50.758;7.150;2023-10-08T18:43:51;11.93;;;8.70;;
7941;SDS011;4016;50.758;7.150;2023-10-08T18:48:53;11.53;;;8.13;;
7941;SDS011;4016;50.758;7.150;2023-10-08T18:53:53;11.70;;;8.90;;
7941;SDS011;4016;50.758;7.150;2023-10-08T18:58:55;11.77;;;9.97;;
7941;SDS011;4016;50.758;7.150;2023-10-08T19:03:56;10.67;;;8.30;;
7941;SDS011;4016;50.758;7.150;2023-10-08T19:08:56;10.97;;;8.70;;
7941;SDS011;4016;50.758;7.150;2023-10-08T19:13:57;13.03;;;8.47;;
7941;SDS011;4016;50.758;7.150;2023-10-08T19:18:58;13.17;;;8.47;;
7941;SDS011;4016;50.758;7.150;2023-10-08T19:23:59;13.57;;;8.47;;
7941;SDS011;4016;50.758;7.150;2023-10-08T19:29:00;11.03;;;8.10;;
7941;SDS011;4016;50.758;7.150;2023-10-08T19:34:00;11.63;;;8.70;;
7941;SDS011;4016;50.758;7.150;2023-10-08T19:39:01;12.87;;;8.43;;
7941;SDS011;4016;50.758;7.150;2023-10-08T19:44:02;11.13;;;8.80;;
7941;SDS011;4016;50.758;7.150;2023-10-08T19:49:02;11.97;;;9.10;;
7941;SDS011;4016;50.758;7.150;2023-10-08T19:54:05;12.53;;;9.60;;
7941;SDS011;4016;50.758;7.150;2023-10-08T19:59:05;11.33;;;9.07;;
7941;SDS011;4016;50.758;7.150;2023-10-08T20:04:06;11.63;;;9.13;;
7941;SDS011;4016;50.758;7.150;2023-10-08T20:09:07;9.90;;;8.83;;
7941;SDS011;4016;50.758;7.150;2023-10-08T20:14:09;11.90;;;9.43;;
7941;SDS011;4016;50.758;7.150;2023-10-08T20:19:09;12.60;;;9.40;;
7941;SDS011;4016;50.758;7.150;2023-10-08T20:24:10;14.30;;;9.50;;
7941;SDS011;4016;50.758;7.150;2023-10-08T20:29:11;15.07;;;10.80;;
7941;SDS011;4016;50.758;7.150;2023-10-08T20:34:13;13.20;;;10.70;;
7941;SDS011;4016;50.758;7.150;2023-10-08T20:39:14;12.40;;;10.00;;
7941;SDS011;4016;50.758;7.150;2023-10-08T20:44:19;13.33;;;10.23;;
7941;SDS011;4016;50.758;7.150;2023-10-08T20:49:21;12.40;;;9.70;;
7941;SDS011;4016;50.758;7.150;2023-10-08T20:54:21;18.10;;;10.77;;
7941;SDS011;4016;50.758;7.150;2023-10-08T20:59:22;15.47;;;10.73;;
7941;SDS011;4016;50.758;7.150;2023-10-08T21:04:22;14.17;;;9.93;;
7941;SDS011;4016;50.758;7.150;2023-10-08T21:09:23;12.23;;;9.23;;
7941;SDS011;4016;50.758;7.150;2023-10-08T21:14:24;14.37;;;9.97;;
7941;SDS011;4016;50.758;7.150;2023-10-08T21:19:25;11.60;;;9.03;;
7941;SDS011;4016;50.758;7.150;2023-10-08T21:24:26;15.43;;;10.07;;
7941;SDS011;4016;50.758;7.150;2023-10-08T21:29:26;11.20;;;8.93;;
7941;SDS011;4016;50.758;7.150;2023-10-08T21:34:27;17.67;;;11.20;;
7941;SDS011;4016;50.758;7.150;2023-10-08T21:39:30;14.63;;;10.07;;
7941;SDS011;4016;50.758;7.150;2023-10-08T21:44:32;12.37;;;9.40;;
7941;SDS011;4016;50.758;7.150;2023-10-08T21:49:32;13.70;;;9.63;;
7941;SDS011;4016;50.758;7.150;2023-10-08T21:54:33;12.17;;;9.90;;
7941;SDS011;4016;50.758;7.150;2023-10-08T21:59:33;11.00;;;8.63;;
7941;SDS011;4016;50.758;7.150;2023-10-08T22:04:34;13.43;;;9.63;;
7941;SDS011;4016;50.758;7.150;2023-10-08T22:09:35;11.60;;;9.43;;
7941;SDS011;4016;50.758;7.150;2023-10-08T22:14:35;14.60;;;10.30;;
7941;SDS011;4016;50.758;7.150;2023-10-08T22:19:35;13.80;;;9.83;;
7941;SDS011;4016;50.758;7.150;2023-10-08T22:24:43;11.70;;;9.47;;
7941;SDS011;4016;50.758;7.150;2023-10-08T22:29:44;14.93;;;10.27;;
7941;SDS011;4016;50.758;7.150;2023-10-08T22:34:48;11.90;;;9.13;;
7941;SDS011;4016;50.758;7.150;2023-10-08T22:39:55;12.07;;;8.83;;
7941;SDS011;4016;50.758;7.150;2023-10-08T22:44:56;17.33;;;10.93;;
7941;SDS011;4016;50.758;7.150;2023-10-08T22:49:56;9.90;;;8.83;;
7941;SDS011;4016;50.758;7.150;2023-10-08T22:54:57;14.07;;;9.70;;
7941;SDS011;4016;50.758;7.150;2023-10-08T22:59:58;11.47;;;9.37;;
7941;SDS011;4016;50.758;7.150;2023-10-08T23:04:59;14.30;;;9.57;;
7941;SDS011;4016;50.758;7.150;2023-10-08T23:10:01;19.70;;;10.17;;
7941;SDS011;4016;50.758;7.150;2023-10-08T23:15:01;15.30;;;9.83;;
7941;SDS011;4016;50.758;7.150;2023-10-08T23:20:02;14.37;;;10.03;;
7941;SDS011;4016;50.758;7.150;2023-10-08T23:25:07;12.60;;;8.87;;
7941;SDS011;4016;50.758;7.150;2023-10-08T23:30:07;13.43;;;9.40;;
7941;SDS011;4016;50.758;7.150;2023-10-08T23:35:10;13.40;;;8.73;;
7941;SDS011;4016;50.758;7.150;2023-10-08T23:40:17;11.13;;;8.23;;
7941;SDS011;4016;50.758;7.150;2023-10-08T23:45:29;12.77;;;9.17;;
7941;SDS011;4016;50.758;7.150;2023-10-08T23:50:30;12.83;;;8.87;;
7941;SDS011;4016;50.758;7.150;2023-10-08T23:55:30;11.13;;;8.70;;
